sensor_id;sensor_type;location;lat;lon;timestamp;temperature;humidity
3648;DHT22;1840;48.892;15.312;2023-04-25T00:01:42;5.40;97.80
3648;DHT22;1840;48.892;15.312;2023-04-25T00:04:10;5.50;97.90
3648;DHT22;1840;48.892;15.312;2023-04-25T00:06:39;5.40;98.10
3648;DHT22;1840;48.892;15.312;2023-04-25T00:09:08;5.50;97.80
3648;DHT22;1840;48.892;15.312;2023-04-25T00:11:37;5.60;97.70
3648;DHT22;1840;48.892;15.312;2023-04-25T00:14:05;5.70;97.60
3648;DHT22;1840;48.892;15.312;2023-04-25T00:16:34;5.70;97.40
3648;DHT22;1840;48.892;15.312;2023-04-25T00:19:02;5.70;97.40
3648;DHT22;1840;48.892;15.312;2023-04-25T00:21:30;5.50;97.70
3648;DHT22;1840;48.892;15.312;2023-04-25T00:23:59;5.50;97.80
3648;DHT22;1840;48.892;15.312;2023-04-25T00:26:29;5.40;97.80
3648;DHT22;1840;48.892;15.312;2023-04-25T00:28:57;5.20;98.00
3648;DHT22;1840;48.892;15.312;2023-04-25T00:31:25;5.30;98.00
3648;DHT22;1840;48.892;15.312;2023-04-25T00:33:53;5.30;98.10
3648;DHT22;1840;48.892;15.312;2023-04-25T00:36:21;5.50;97.60
3648;DHT22;1840;48.892;15.312;2023-04-25T00:38:49;5.40;97.60
3648;DHT22;1840;48.892;15.312;2023-04-25T00:41:18;5.40;97.70
3648;DHT22;1840;48.892;15.312;2023-04-25T00:43:48;5.50;97.70
3648;DHT22;1840;48.892;15.312;2023-04-25T00:46:17;5.30;97.80
3648;DHT22;1840;48.892;15.312;2023-04-25T00:48:45;5.30;97.90
3648;DHT22;1840;48.892;15.312;2023-04-25T00:51:16;5.30;97.80
3648;DHT22;1840;48.892;15.312;2023-04-25T00:53:45;5.30;97.90
3648;DHT22;1840;48.892;15.312;2023-04-25T00:56:17;5.20;97.60
3648;DHT22;1840;48.892;15.312;2023-04-25T00:58:45;5.30;97.80
3648;DHT22;1840;48.892;15.312;2023-04-25T01:01:15;5.30;97.70
3648;DHT22;1840;48.892;15.312;2023-04-25T01:03:46;5.30;97.80
3648;DHT22;1840;48.892;15.312;2023-04-25T01:06:17;5.30;97.60
3648;DHT22;1840;48.892;15.312;2023-04-25T01:08:45;5.30;97.70
3648;DHT22;1840;48.892;15.312;2023-04-25T01:11:14;5.20;97.80
3648;DHT22;1840;48.892;15.312;2023-04-25T01:13:42;5.30;97.60
3648;DHT22;1840;48.892;15.312;2023-04-25T01:16:10;5.30;97.40
3648;DHT22;1840;48.892;15.312;2023-04-25T01:18:40;5.30;97.60
3648;DHT22;1840;48.892;15.312;2023-04-25T01:21:11;5.40;97.40
3648;DHT22;1840;48.892;15.312;2023-04-25T01:23:41;5.40;97.20
3648;DHT22;1840;48.892;15.312;2023-04-25T01:26:10;5.30;97.20
3648;DHT22;1840;48.892;15.312;2023-04-25T01:28:39;5.30;97.40
3648;DHT22;1840;48.892;15.312;2023-04-25T01:31:08;5.30;97.20
3648;DHT22;1840;48.892;15.312;2023-04-25T01:33:37;5.30;97.40
3648;DHT22;1840;48.892;15.312;2023-04-25T01:36:06;5.20;97.30
3648;DHT22;1840;48.892;15.312;2023-04-25T01:38:35;5.20;97.50
3648;DHT22;1840;48.892;15.312;2023-04-25T01:41:03;5.20;97.30
3648;DHT22;1840;48.892;15.312;2023-04-25T01:43:32;5.10;97.40
3648;DHT22;1840;48.892;15.312;2023-04-25T01:46:00;5.10;97.50
3648;DHT22;1840;48.892;15.312;2023-04-25T01:48:29;5.10;97.80
3648;DHT22;1840;48.892;15.312;2023-04-25T01:50:57;5.00;97.60
3648;DHT22;1840;48.892;15.312;2023-04-25T01:53:25;5.00;97.90
3648;DHT22;1840;48.892;15.312;2023-04-25T01:55:54;4.90;97.80
3648;DHT22;1840;48.892;15.312;2023-04-25T01:58:23;4.80;97.70
3648;DHT22;1840;48.892;15.312;2023-04-25T02:00:51;4.70;97.90
3648;DHT22;1840;48.892;15.312;2023-04-25T02:03:19;4.50;98.20
3648;DHT22;1840;48.892;15.312;2023-04-25T02:05:47;4.50;98.20
3648;DHT22;1840;48.892;15.312;2023-04-25T02:08:17;4.50;98.00
3648;DHT22;1840;48.892;15.312;2023-04-25T02:10:45;4.40;98.20
3648;DHT22;1840;48.892;15.312;2023-04-25T02:13:14;4.30;98.30
3648;DHT22;1840;48.892;15.312;2023-04-25T02:15:42;4.20;98.70
3648;DHT22;1840;48.892;15.312;2023-04-25T02:18:10;4.30;98.30
3648;DHT22;1840;48.892;15.312;2023-04-25T02:20:39;4.40;98.10
3648;DHT22;1840;48.892;15.312;2023-04-25T02:23:08;4.40;97.90
3648;DHT22;1840;48.892;15.312;2023-04-25T02:25:36;4.20;98.20
3648;DHT22;1840;48.892;15.312;2023-04-25T02:28:04;4.20;98.20
3648;DHT22;1840;48.892;15.312;2023-04-25T02:30:33;4.10;98.10
3648;DHT22;1840;48.892;15.312;2023-04-25T02:33:01;4.20;97.80
3648;DHT22;1840;48.892;15.312;2023-04-25T02:35:30;4.10;97.80
3648;DHT22;1840;48.892;15.312;2023-04-25T02:37:58;4.10;97.80
3648;DHT22;1840;48.892;15.312;2023-04-25T02:40:26;4.10;97.90
3648;DHT22;1840;48.892;15.312;2023-04-25T02:42:54;4.00;97.50
3648;DHT22;1840;48.892;15.312;2023-04-25T02:45:22;3.90;97.80
3648;DHT22;1840;48.892;15.312;2023-04-25T02:47:51;3.70;98.20
3648;DHT22;1840;48.892;15.312;2023-04-25T02:50:19;3.60;98.50
3648;DHT22;1840;48.892;15.312;2023-04-25T02:52:47;3.50;98.60
3648;DHT22;1840;48.892;15.312;2023-04-25T02:55:15;3.50;98.70
3648;DHT22;1840;48.892;15.312;2023-04-25T02:57:43;3.50;98.80
3648;DHT22;1840;48.892;15.312;2023-04-25T03:00:12;3.50;98.90
3648;DHT22;1840;48.892;15.312;2023-04-25T03:02:41;3.50;98.70
3648;DHT22;1840;48.892;15.312;2023-04-25T03:05:10;3.50;98.80
3648;DHT22;1840;48.892;15.312;2023-04-25T03:07:38;3.50;99.10
3648;DHT22;1840;48.892;15.312;2023-04-25T03:10:07;3.60;98.60
3648;DHT22;1840;48.892;15.312;2023-04-25T03:12:35;3.50;98.80
3648;DHT22;1840;48.892;15.312;2023-04-25T03:15:04;3.50;98.80
3648;DHT22;1840;48.892;15.312;2023-04-25T03:17:33;3.50;98.70
3648;DHT22;1840;48.892;15.312;2023-04-25T03:20:02;3.50;98.90
3648;DHT22;1840;48.892;15.312;2023-04-25T03:22:33;3.40;98.80
3648;DHT22;1840;48.892;15.312;2023-04-25T03:25:02;3.50;98.80
3648;DHT22;1840;48.892;15.312;2023-04-25T03:27:30;3.50;98.80
3648;DHT22;1840;48.892;15.312;2023-04-25T03:29:58;3.50;98.80
3648;DHT22;1840;48.892;15.312;2023-04-25T03:32:26;3.50;98.50
3648;DHT22;1840;48.892;15.312;2023-04-25T03:34:54;3.60;98.50
3648;DHT22;1840;48.892;15.312;2023-04-25T03:37:22;3.50;98.40
3648;DHT22;1840;48.892;15.312;2023-04-25T03:39:52;3.40;98.90
3648;DHT22;1840;48.892;15.312;2023-04-25T03:42:20;3.50;98.40
3648;DHT22;1840;48.892;15.312;2023-04-25T03:44:49;3.30;98.60
3648;DHT22;1840;48.892;15.312;2023-04-25T03:47:17;3.30;98.50
3648;DHT22;1840;48.892;15.312;2023-04-25T03:49:45;3.10;98.80
3648;DHT22;1840;48.892;15.312;2023-04-25T03:52:13;3.10;99.00
3648;DHT22;1840;48.892;15.312;2023-04-25T03:54:42;3.10;99.40
3648;DHT22;1840;48.892;15.312;2023-04-25T03:57:11;3.20;98.90
3648;DHT22;1840;48.892;15.312;2023-04-25T03:59:39;3.20;98.50
3648;DHT22;1840;48.892;15.312;2023-04-25T04:02:07;3.20;98.70
3648;DHT22;1840;48.892;15.312;2023-04-25T04:04:36;3.10;98.90
3648;DHT22;1840;48.892;15.312;2023-04-25T04:07:04;3.00;99.10
3648;DHT22;1840;48.892;15.312;2023-04-25T04:09:33;2.90;99.30
3648;DHT22;1840;48.892;15.312;2023-04-25T04:12:01;3.00;99.10
3648;DHT22;1840;48.892;15.312;2023-04-25T04:14:31;3.00;99.20
3648;DHT22;1840;48.892;15.312;2023-04-25T04:16:59;3.00;99.20
3648;DHT22;1840;48.892;15.312;2023-04-25T04:19:27;3.00;99.30
3648;DHT22;1840;48.892;15.312;2023-04-25T04:21:55;3.10;99.00
3648;DHT22;1840;48.892;15.312;2023-04-25T04:24:23;3.20;98.80
3648;DHT22;1840;48.892;15.312;2023-04-25T04:26:52;3.30;98.70
3648;DHT22;1840;48.892;15.312;2023-04-25T04:29:21;3.30;98.50
3648;DHT22;1840;48.892;15.312;2023-04-25T04:31:53;3.20;98.60
3648;DHT22;1840;48.892;15.312;2023-04-25T04:34:22;3.20;98.60
3648;DHT22;1840;48.892;15.312;2023-04-25T04:36:53;3.10;98.80
3648;DHT22;1840;48.892;15.312;2023-04-25T04:39:22;3.00;99.30
3648;DHT22;1840;48.892;15.312;2023-04-25T04:41:51;2.90;99.00
3648;DHT22;1840;48.892;15.312;2023-04-25T04:44:19;2.90;98.80
3648;DHT22;1840;48.892;15.312;2023-04-25T04:46:47;2.70;99.00
3648;DHT22;1840;48.892;15.312;2023-04-25T04:49:17;3.00;99.00
3648;DHT22;1840;48.892;15.312;2023-04-25T04:51:45;3.20;98.70
3648;DHT22;1840;48.892;15.312;2023-04-25T04:54:14;3.20;98.80
3648;DHT22;1840;48.892;15.312;2023-04-25T04:56:43;3.10;99.20
3648;DHT22;1840;48.892;15.312;2023-04-25T04:59:12;3.10;99.50
3648;DHT22;1840;48.892;15.312;2023-04-25T05:01:41;3.20;99.50
3648;DHT22;1840;48.892;15.312;2023-04-25T05:04:10;3.20;99.40
3648;DHT22;1840;48.892;15.312;2023-04-25T05:06:42;3.30;99.60
3648;DHT22;1840;48.892;15.312;2023-04-25T05:09:14;3.30;99.90
3648;DHT22;1840;48.892;15.312;2023-04-25T05:11:43;3.60;99.70
3648;DHT22;1840;48.892;15.312;2023-04-25T05:14:11;3.80;99.40
3648;DHT22;1840;48.892;15.312;2023-04-25T05:16:40;4.00;99.30
3648;DHT22;1840;48.892;15.312;2023-04-25T05:19:08;4.20;99.30
3648;DHT22;1840;48.892;15.312;2023-04-25T05:21:36;4.20;99.10
3648;DHT22;1840;48.892;15.312;2023-04-25T05:24:07;4.40;99.30
3648;DHT22;1840;48.892;15.312;2023-04-25T05:26:36;4.60;99.20
3648;DHT22;1840;48.892;15.312;2023-04-25T05:29:05;4.80;98.90
3648;DHT22;1840;48.892;15.312;2023-04-25T05:31:34;5.00;98.60
3648;DHT22;1840;48.892;15.312;2023-04-25T05:34:02;5.20;99.00
3648;DHT22;1840;48.892;15.312;2023-04-25T05:36:30;5.10;98.30
3648;DHT22;1840;48.892;15.312;2023-04-25T05:38:59;5.10;98.50
3648;DHT22;1840;48.892;15.312;2023-04-25T05:41:29;5.50;98.60
3648;DHT22;1840;48.892;15.312;2023-04-25T05:43:58;5.50;98.10
3648;DHT22;1840;48.892;15.312;2023-04-25T05:46:26;5.50;98.00
3648;DHT22;1840;48.892;15.312;2023-04-25T05:48:55;5.60;97.30
3648;DHT22;1840;48.892;15.312;2023-04-25T05:51:23;5.60;98.00
3648;DHT22;1840;48.892;15.312;2023-04-25T05:53:53;5.70;97.50
3648;DHT22;1840;48.892;15.312;2023-04-25T05:56:21;5.70;97.80
3648;DHT22;1840;48.892;15.312;2023-04-25T05:58:51;6.00;97.80
3648;DHT22;1840;48.892;15.312;2023-04-25T06:01:19;6.30;97.00
3648;DHT22;1840;48.892;15.312;2023-04-25T06:03:47;6.50;96.80
3648;DHT22;1840;48.892;15.312;2023-04-25T06:06:17;6.30;96.40
3648;DHT22;1840;48.892;15.312;2023-04-25T06:08:46;6.30;96.80
3648;DHT22;1840;48.892;15.312;2023-04-25T06:11:14;6.30;97.20
3648;DHT22;1840;48.892;15.312;2023-04-25T06:13:42;6.60;96.90
3648;DHT22;1840;48.892;15.312;2023-04-25T06:16:12;6.60;97.20
3648;DHT22;1840;48.892;15.312;2023-04-25T06:18:41;6.60;96.80
3648;DHT22;1840;48.892;15.312;2023-04-25T06:21:09;7.20;97.90
3648;DHT22;1840;48.892;15.312;2023-04-25T06:23:38;7.40;96.90
3648;DHT22;1840;48.892;15.312;2023-04-25T06:26:06;7.50;96.30
3648;DHT22;1840;48.892;15.312;2023-04-25T06:28:34;7.70;96.20
3648;DHT22;1840;48.892;15.312;2023-04-25T06:31:02;8.00;95.80
3648;DHT22;1840;48.892;15.312;2023-04-25T06:33:32;7.70;94.70
3648;DHT22;1840;48.892;15.312;2023-04-25T06:36:00;7.90;95.80
3648;DHT22;1840;48.892;15.312;2023-04-25T06:38:28;8.70;94.80
3648;DHT22;1840;48.892;15.312;2023-04-25T06:40:56;9.70;94.90
3648;DHT22;1840;48.892;15.312;2023-04-25T06:43:24;9.30;93.40
3648;DHT22;1840;48.892;15.312;2023-04-25T06:45:52;9.60;93.50
3648;DHT22;1840;48.892;15.312;2023-04-25T06:48:20;9.70;94.20
3648;DHT22;1840;48.892;15.312;2023-04-25T06:50:50;10.30;93.70
3648;DHT22;1840;48.892;15.312;2023-04-25T06:53:18;9.80;94.20
3648;DHT22;1840;48.892;15.312;2023-04-25T06:55:46;10.80;94.10
3648;DHT22;1840;48.892;15.312;2023-04-25T06:58:14;11.80;93.10
3648;DHT22;1840;48.892;15.312;2023-04-25T07:00:42;11.80;92.30
3648;DHT22;1840;48.892;15.312;2023-04-25T07:03:11;11.20;92.50
3648;DHT22;1840;48.892;15.312;2023-04-25T07:05:39;11.20;92.00
3648;DHT22;1840;48.892;15.312;2023-04-25T07:08:08;11.40;91.60
3648;DHT22;1840;48.892;15.312;2023-04-25T07:10:37;11.30;91.50
3648;DHT22;1840;48.892;15.312;2023-04-25T07:13:05;11.10;91.90
3648;DHT22;1840;48.892;15.312;2023-04-25T07:15:33;10.80;92.00
3648;DHT22;1840;48.892;15.312;2023-04-25T07:18:01;10.50;91.50
3648;DHT22;1840;48.892;15.312;2023-04-25T07:20:29;10.40;92.40
3648;DHT22;1840;48.892;15.312;2023-04-25T07:22:58;11.10;92.00
3648;DHT22;1840;48.892;15.312;2023-04-25T07:25:27;11.10;92.10
3648;DHT22;1840;48.892;15.312;2023-04-25T07:27:55;11.20;91.50
3648;DHT22;1840;48.892;15.312;2023-04-25T07:30:23;11.10;91.40
3648;DHT22;1840;48.892;15.312;2023-04-25T07:32:52;10.90;91.30
3648;DHT22;1840;48.892;15.312;2023-04-25T07:35:20;11.10;91.30
3648;DHT22;1840;48.892;15.312;2023-04-25T07:37:48;10.60;91.30
3648;DHT22;1840;48.892;15.312;2023-04-25T07:40:17;10.90;92.30
3648;DHT22;1840;48.892;15.312;2023-04-25T07:42:46;11.20;92.00
3648;DHT22;1840;48.892;15.312;2023-04-25T07:45:14;11.60;91.10
3648;DHT22;1840;48.892;15.312;2023-04-25T07:47:42;11.70;90.90
3648;DHT22;1840;48.892;15.312;2023-04-25T07:50:11;11.40;91.50
3648;DHT22;1840;48.892;15.312;2023-04-25T07:52:39;11.30;90.90
3648;DHT22;1840;48.892;15.312;2023-04-25T07:55:08;11.60;91.10
3648;DHT22;1840;48.892;15.312;2023-04-25T07:57:36;11.60;91.10
3648;DHT22;1840;48.892;15.312;2023-04-25T08:00:07;11.90;90.90
3648;DHT22;1840;48.892;15.312;2023-04-25T08:02:37;11.10;91.00
3648;DHT22;1840;48.892;15.312;2023-04-25T08:05:06;10.70;91.60
3648;DHT22;1840;48.892;15.312;2023-04-25T08:07:35;10.40;91.40
3648;DHT22;1840;48.892;15.312;2023-04-25T08:10:03;10.10;91.80
3648;DHT22;1840;48.892;15.312;2023-04-25T08:12:31;10.60;93.20
3648;DHT22;1840;48.892;15.312;2023-04-25T08:14:59;10.60;90.90
3648;DHT22;1840;48.892;15.312;2023-04-25T08:17:29;10.60;91.20
3648;DHT22;1840;48.892;15.312;2023-04-25T08:19:57;10.80;91.00
3648;DHT22;1840;48.892;15.312;2023-04-25T08:22:25;10.50;91.60
3648;DHT22;1840;48.892;15.312;2023-04-25T08:24:53;10.60;91.70
3648;DHT22;1840;48.892;15.312;2023-04-25T08:27:21;10.60;90.80
3648;DHT22;1840;48.892;15.312;2023-04-25T08:29:51;10.30;91.00
3648;DHT22;1840;48.892;15.312;2023-04-25T08:32:19;10.30;91.40
3648;DHT22;1840;48.892;15.312;2023-04-25T08:34:51;10.10;91.30
3648;DHT22;1840;48.892;15.312;2023-04-25T08:37:21;9.80;91.20
3648;DHT22;1840;48.892;15.312;2023-04-25T08:39:49;10.20;92.20
3648;DHT22;1840;48.892;15.312;2023-04-25T08:42:19;10.60;91.50
3648;DHT22;1840;48.892;15.312;2023-04-25T08:44:49;11.00;90.80
3648;DHT22;1840;48.892;15.312;2023-04-25T08:47:21;11.20;91.40
3648;DHT22;1840;48.892;15.312;2023-04-25T08:49:53;11.40;90.80
3648;DHT22;1840;48.892;15.312;2023-04-25T08:52:22;12.00;91.10
3648;DHT22;1840;48.892;15.312;2023-04-25T08:54:51;12.20;90.00
3648;DHT22;1840;48.892;15.312;2023-04-25T08:57:21;11.30;88.30
3648;DHT22;1840;48.892;15.312;2023-04-25T08:59:52;11.20;90.20
3648;DHT22;1840;48.892;15.312;2023-04-25T09:02:22;11.50;86.20
3648;DHT22;1840;48.892;15.312;2023-04-25T09:04:54;12.10;85.10
3648;DHT22;1840;48.892;15.312;2023-04-25T09:07:23;11.80;86.10
3648;DHT22;1840;48.892;15.312;2023-04-25T09:09:53;12.10;86.00
3648;DHT22;1840;48.892;15.312;2023-04-25T09:12:22;12.10;86.20
3648;DHT22;1840;48.892;15.312;2023-04-25T09:15:06;11.90;88.10
3648;DHT22;1840;48.892;15.312;2023-04-25T09:17:35;11.70;86.20
3648;DHT22;1840;48.892;15.312;2023-04-25T09:20:11;11.50;87.90
3648;DHT22;1840;48.892;15.312;2023-04-25T09:22:40;12.10;88.60
3648;DHT22;1840;48.892;15.312;2023-04-25T09:25:11;12.70;88.10
3648;DHT22;1840;48.892;15.312;2023-04-25T09:27:50;12.90;85.10
3648;DHT22;1840;48.892;15.312;2023-04-25T09:30:19;11.60;85.40
3648;DHT22;1840;48.892;15.312;2023-04-25T09:32:56;10.80;88.30
3648;DHT22;1840;48.892;15.312;2023-04-25T09:35:28;10.00;87.40
3648;DHT22;1840;48.892;15.312;2023-04-25T09:37:59;10.00;88.10
3648;DHT22;1840;48.892;15.312;2023-04-25T09:40:27;9.90;88.40
3648;DHT22;1840;48.892;15.312;2023-04-25T09:42:58;9.40;89.60
3648;DHT22;1840;48.892;15.312;2023-04-25T09:45:29;9.10;90.80
3648;DHT22;1840;48.892;15.312;2023-04-25T09:48:03;9.10;91.20
3648;DHT22;1840;48.892;15.312;2023-04-25T09:50:34;9.10;91.60
3648;DHT22;1840;48.892;15.312;2023-04-25T09:53:04;9.20;92.50
3648;DHT22;1840;48.892;15.312;2023-04-25T09:55:34;9.30;92.70
3648;DHT22;1840;48.892;15.312;2023-04-25T09:58:05;9.20;93.40
3648;DHT22;1840;48.892;15.312;2023-04-25T10:00:34;9.30;92.40
3648;DHT22;1840;48.892;15.312;2023-04-25T10:03:05;9.00;92.40
3648;DHT22;1840;48.892;15.312;2023-04-25T10:05:37;9.20;93.50
3648;DHT22;1840;48.892;15.312;2023-04-25T10:08:07;9.30;93.00
3648;DHT22;1840;48.892;15.312;2023-04-25T10:10:37;9.60;92.60
3648;DHT22;1840;48.892;15.312;2023-04-25T10:13:07;10.20;92.50
3648;DHT22;1840;48.892;15.312;2023-04-25T10:15:39;10.70;91.60
3648;DHT22;1840;48.892;15.312;2023-04-25T10:18:08;10.70;92.20
3648;DHT22;1840;48.892;15.312;2023-04-25T10:20:38;11.00;91.00
3648;DHT22;1840;48.892;15.312;2023-04-25T10:23:11;11.20;91.00
3648;DHT22;1840;48.892;15.312;2023-04-25T10:25:42;11.30;90.40
3648;DHT22;1840;48.892;15.312;2023-04-25T10:28:11;11.70;90.00
3648;DHT22;1840;48.892;15.312;2023-04-25T10:30:56;11.70;89.10
3648;DHT22;1840;48.892;15.312;2023-04-25T10:33:34;11.20;89.70
3648;DHT22;1840;48.892;15.312;2023-04-25T10:36:12;11.70;91.10
3648;DHT22;1840;48.892;15.312;2023-04-25T10:38:42;12.50;90.30
3648;DHT22;1840;48.892;15.312;2023-04-25T10:41:12;12.90;89.00
3648;DHT22;1840;48.892;15.312;2023-04-25T10:43:41;13.20;87.20
3648;DHT22;1840;48.892;15.312;2023-04-25T10:46:17;13.90;87.10
3648;DHT22;1840;48.892;15.312;2023-04-25T10:48:48;14.10;85.20
3648;DHT22;1840;48.892;15.312;2023-04-25T10:51:20;13.70;84.70
3648;DHT22;1840;48.892;15.312;2023-04-25T10:53:57;12.90;86.20
3648;DHT22;1840;48.892;15.312;2023-04-25T10:56:27;11.80;85.90
3648;DHT22;1840;48.892;15.312;2023-04-25T10:59:06;11.50;87.90
3648;DHT22;1840;48.892;15.312;2023-04-25T11:01:39;11.20;88.50
3648;DHT22;1840;48.892;15.312;2023-04-25T11:04:20;11.00;89.10
3648;DHT22;1840;48.892;15.312;2023-04-25T11:07:04;9.50;90.50
3648;DHT22;1840;48.892;15.312;2023-04-25T11:09:34;8.70;90.30
3648;DHT22;1840;48.892;15.312;2023-04-25T11:12:04;8.10;91.30
3648;DHT22;1840;48.892;15.312;2023-04-25T11:14:36;7.50;91.80
3648;DHT22;1840;48.892;15.312;2023-04-25T11:17:07;7.00;92.10
3648;DHT22;1840;48.892;15.312;2023-04-25T11:19:38;6.80;92.30
3648;DHT22;1840;48.892;15.312;2023-04-25T11:22:12;6.70;92.90
3648;DHT22;1840;48.892;15.312;2023-04-25T11:24:46;6.90;93.40
3648;DHT22;1840;48.892;15.312;2023-04-25T11:27:25;6.90;92.80
3648;DHT22;1840;48.892;15.312;2023-04-25T11:29:55;7.10;93.10
3648;DHT22;1840;48.892;15.312;2023-04-25T11:32:50;7.40;93.20
3648;DHT22;1840;48.892;15.312;2023-04-25T11:35:22;7.80;92.70
3648;DHT22;1840;48.892;15.312;2023-04-25T11:37:53;8.20;92.00
3648;DHT22;1840;48.892;15.312;2023-04-25T11:40:21;8.30;91.20
3648;DHT22;1840;48.892;15.312;2023-04-25T11:42:49;8.60;91.80
3648;DHT22;1840;48.892;15.312;2023-04-25T11:45:23;8.80;91.80
3648;DHT22;1840;48.892;15.312;2023-04-25T11:47:51;9.30;91.30
3648;DHT22;1840;48.892;15.312;2023-04-25T11:50:19;9.60;91.40
3648;DHT22;1840;48.892;15.312;2023-04-25T11:52:48;9.70;92.50
3648;DHT22;1840;48.892;15.312;2023-04-25T11:55:19;10.00;91.60
3648;DHT22;1840;48.892;15.312;2023-04-25T11:57:49;9.90;91.00
3648;DHT22;1840;48.892;15.312;2023-04-25T12:00:19;9.60;91.80
3648;DHT22;1840;48.892;15.312;2023-04-25T12:02:51;9.70;91.60
3648;DHT22;1840;48.892;15.312;2023-04-25T12:05:23;10.10;90.90
3648;DHT22;1840;48.892;15.312;2023-04-25T12:07:54;9.70;91.50
3648;DHT22;1840;48.892;15.312;2023-04-25T12:10:25;10.20;90.60
3648;DHT22;1840;48.892;15.312;2023-04-25T12:12:53;10.40;90.50
3648;DHT22;1840;48.892;15.312;2023-04-25T12:15:24;10.70;90.00
3648;DHT22;1840;48.892;15.312;2023-04-25T12:17:54;10.90;88.10
3648;DHT22;1840;48.892;15.312;2023-04-25T12:20:25;10.80;89.10
3648;DHT22;1840;48.892;15.312;2023-04-25T12:22:53;10.80;89.50
3648;DHT22;1840;48.892;15.312;2023-04-25T12:25:36;11.00;91.40
3648;DHT22;1840;48.892;15.312;2023-04-25T12:28:17;11.20;91.50
3648;DHT22;1840;48.892;15.312;2023-04-25T12:30:57;11.50;90.60
3648;DHT22;1840;48.892;15.312;2023-04-25T12:33:27;11.90;89.40
3648;DHT22;1840;48.892;15.312;2023-04-25T12:35:55;11.70;89.80
3648;DHT22;1840;48.892;15.312;2023-04-25T12:38:25;11.80;89.50
3648;DHT22;1840;48.892;15.312;2023-04-25T12:40:54;11.20;90.00
3648;DHT22;1840;48.892;15.312;2023-04-25T12:43:23;11.10;89.40
3648;DHT22;1840;48.892;15.312;2023-04-25T12:45:52;10.80;90.80
3648;DHT22;1840;48.892;15.312;2023-04-25T12:48:21;10.50;90.80
3648;DHT22;1840;48.892;15.312;2023-04-25T12:50:50;10.50;90.80
3648;DHT22;1840;48.892;15.312;2023-04-25T12:53:20;10.50;91.30
3648;DHT22;1840;48.892;15.312;2023-04-25T12:55:48;10.30;92.10
3648;DHT22;1840;48.892;15.312;2023-04-25T12:58:19;10.00;92.10
3648;DHT22;1840;48.892;15.312;2023-04-25T13:00:47;9.80;92.60
3648;DHT22;1840;48.892;15.312;2023-04-25T13:03:16;9.30;94.20
3648;DHT22;1840;48.892;15.312;2023-04-25T13:05:45;9.20;94.00
3648;DHT22;1840;48.892;15.312;2023-04-25T13:08:14;9.00;94.00
3648;DHT22;1840;48.892;15.312;2023-04-25T13:10:43;8.90;94.60
3648;DHT22;1840;48.892;15.312;2023-04-25T13:13:11;8.70;95.40
3648;DHT22;1840;48.892;15.312;2023-04-25T13:15:40;8.40;95.70
3648;DHT22;1840;48.892;15.312;2023-04-25T13:18:09;7.90;95.40
3648;DHT22;1840;48.892;15.312;2023-04-25T13:20:37;7.50;96.20
3648;DHT22;1840;48.892;15.312;2023-04-25T13:23:05;7.00;97.20
3648;DHT22;1840;48.892;15.312;2023-04-25T13:25:33;6.60;98.10
3648;DHT22;1840;48.892;15.312;2023-04-25T13:28:01;6.60;98.70
3648;DHT22;1840;48.892;15.312;2023-04-25T13:30:30;6.70;98.70
3648;DHT22;1840;48.892;15.312;2023-04-25T13:32:59;6.50;98.90
3648;DHT22;1840;48.892;15.312;2023-04-25T13:35:30;6.20;98.30
3648;DHT22;1840;48.892;15.312;2023-04-25T13:37:58;5.90;99.60
3648;DHT22;1840;48.892;15.312;2023-04-25T13:40:27;5.50;99.90
3648;DHT22;1840;48.892;15.312;2023-04-25T13:42:55;5.50;99.90
3648;DHT22;1840;48.892;15.312;2023-04-25T13:45:28;5.80;99.90
3648;DHT22;1840;48.892;15.312;2023-04-25T13:48:00;6.00;99.90
3648;DHT22;1840;48.892;15.312;2023-04-25T13:50:29;6.00;99.90
3648;DHT22;1840;48.892;15.312;2023-04-25T13:52:59;6.10;99.90
3648;DHT22;1840;48.892;15.312;2023-04-25T13:55:27;6.10;99.90
3648;DHT22;1840;48.892;15.312;2023-04-25T13:57:55;6.20;99.90
3648;DHT22;1840;48.892;15.312;2023-04-25T14:00:23;6.30;99.90
3648;DHT22;1840;48.892;15.312;2023-04-25T14:02:52;6.40;99.90
3648;DHT22;1840;48.892;15.312;2023-04-25T14:05:21;6.50;99.90
3648;DHT22;1840;48.892;15.312;2023-04-25T14:07:49;6.50;99.90
3648;DHT22;1840;48.892;15.312;2023-04-25T14:10:17;6.50;99.90
3648;DHT22;1840;48.892;15.312;2023-04-25T14:12:46;6.60;99.90
3648;DHT22;1840;48.892;15.312;2023-04-25T14:15:14;6.60;99.90
3648;DHT22;1840;48.892;15.312;2023-04-25T14:17:42;6.70;99.90
3648;DHT22;1840;48.892;15.312;2023-04-25T14:20:12;6.90;99.90
3648;DHT22;1840;48.892;15.312;2023-04-25T14:22:41;7.10;99.90
3648;DHT22;1840;48.892;15.312;2023-04-25T14:25:10;7.20;99.90
3648;DHT22;1840;48.892;15.312;2023-04-25T14:27:38;7.30;99.90
3648;DHT22;1840;48.892;15.312;2023-04-25T14:30:08;7.20;99.90
3648;DHT22;1840;48.892;15.312;2023-04-25T14:32:36;7.10;99.90
3648;DHT22;1840;48.892;15.312;2023-04-25T14:35:05;7.40;99.90
3648;DHT22;1840;48.892;15.312;2023-04-25T14:37:33;7.40;99.90
3648;DHT22;1840;48.892;15.312;2023-04-25T14:40:03;7.20;99.90
3648;DHT22;1840;48.892;15.312;2023-04-25T14:42:34;7.30;99.90
3648;DHT22;1840;48.892;15.312;2023-04-25T14:45:02;7.40;99.90
3648;DHT22;1840;48.892;15.312;2023-04-25T14:47:30;7.20;99.90
3648;DHT22;1840;48.892;15.312;2023-04-25T14:49:59;7.30;99.90
3648;DHT22;1840;48.892;15.312;2023-04-25T14:52:28;7.40;99.90
3648;DHT22;1840;48.892;15.312;2023-04-25T14:54:57;7.80;99.90
3648;DHT22;1840;48.892;15.312;2023-04-25T14:57:28;8.20;99.90
3648;DHT22;1840;48.892;15.312;2023-04-25T14:59:56;8.60;99.90
3648;DHT22;1840;48.892;15.312;2023-04-25T15:02:24;9.00;99.90
3648;DHT22;1840;48.892;15.312;2023-04-25T15:04:53;9.10;99.90
3648;DHT22;1840;48.892;15.312;2023-04-25T15:07:22;9.00;99.90
3648;DHT22;1840;48.892;15.312;2023-04-25T15:09:51;9.20;99.90
3648;DHT22;1840;48.892;15.312;2023-04-25T15:12:23;8.90;99.60
3648;DHT22;1840;48.892;15.312;2023-04-25T15:14:54;9.30;99.90
3648;DHT22;1840;48.892;15.312;2023-04-25T15:17:22;9.10;98.90
3648;DHT22;1840;48.892;15.312;2023-04-25T15:19:50;9.10;98.70
3648;DHT22;1840;48.892;15.312;2023-04-25T15:22:18;9.10;97.10
3648;DHT22;1840;48.892;15.312;2023-04-25T15:24:46;8.90;96.60
3648;DHT22;1840;48.892;15.312;2023-04-25T15:27:14;8.60;96.40
3648;DHT22;1840;48.892;15.312;2023-04-25T15:29:43;8.60;96.20
3648;DHT22;1840;48.892;15.312;2023-04-25T15:32:13;8.40;96.10
3648;DHT22;1840;48.892;15.312;2023-04-25T15:34:41;8.40;95.90
3648;DHT22;1840;48.892;15.312;2023-04-25T15:37:10;8.30;96.40
3648;DHT22;1840;48.892;15.312;2023-04-25T15:39:38;8.50;96.40
3648;DHT22;1840;48.892;15.312;2023-04-25T15:42:06;8.60;95.60
3648;DHT22;1840;48.892;15.312;2023-04-25T15:44:35;8.60;95.50
3648;DHT22;1840;48.892;15.312;2023-04-25T15:47:02;8.60;95.10
3648;DHT22;1840;48.892;15.312;2023-04-25T15:49:32;8.80;96.20
3648;DHT22;1840;48.892;15.312;2023-04-25T15:52:01;9.10;96.30
3648;DHT22;1840;48.892;15.312;2023-04-25T15:54:29;8.80;96.10
3648;DHT22;1840;48.892;15.312;2023-04-25T15:56:57;9.20;95.30
3648;DHT22;1840;48.892;15.312;2023-04-25T15:59:25;9.30;94.90
3648;DHT22;1840;48.892;15.312;2023-04-25T16:01:53;9.50;95.20
3648;DHT22;1840;48.892;15.312;2023-04-25T16:04:23;9.30;93.40
3648;DHT22;1840;48.892;15.312;2023-04-25T16:06:54;9.70;94.30
3648;DHT22;1840;48.892;15.312;2023-04-25T16:09:23;9.60;93.40
3648;DHT22;1840;48.892;15.312;2023-04-25T16:11:52;9.50;92.90